Time;durP1;ratioP1;P1;durP2;ratioP2;P2;SDS_P1;SDS_P2;PMS_P1;PMS_P2;Temp;Humidity;BMP_temperature;BMP_pressure;BME280_temperature;BME280_humidity;BME280_pressure;Samples;Min_cycle;Max_cycle;Signal;HPM_P1;HPM_P2
2023/03/27 00:00:26;;;;;;;14.10;2.83;;;;;;;3.34;87.65;98743.16;5099216;28;20028;-60
2023/03/27 00:02:52;;;;;;;11.05;2.65;;;;;;;3.32;86.71;98739.09;5098228;28;20486;-60
2023/03/27 00:05:21;;;;;;;16.50;3.22;;;;;;;3.22;88.01;98750.94;5098771;28;20120;-60
2023/03/27 00:07:47;;;;;;;22.73;3.95;;;;;;;3.25;88.40;98760.31;5096601;28;20032;-60
2023/03/27 00:10:13;;;;;;;20.52;3.13;;;;;;;3.16;89.03;98757.06;5097873;28;20020;-60
2023/03/27 00:12:39;;;;;;;12.25;2.58;;;;;;;3.15;89.71;98771.31;5096452;28;20067;-60
2023/03/27 00:15:04;;;;;;;19.05;3.20;;;;;;;3.10;90.66;98773.78;5100125;28;20065;-60
2023/03/27 00:17:30;;;;;;;18.55;2.92;;;;;;;3.04;90.56;98771.94;5106388;28;20024;-60
2023/03/27 00:19:56;;;;;;;17.27;2.83;;;;;;;2.96;89.90;98785.38;5102043;28;20362;-60
2023/03/27 00:22:21;;;;;;;16.02;3.75;;;;;;;2.91;90.68;98803.72;5097524;28;20028;-60
2023/03/27 00:24:47;;;;;;;14.30;2.53;;;;;;;2.72;89.11;98798.22;5098022;28;20085;-60
2023/03/27 00:27:13;;;;;;;18.58;2.80;;;;;;;2.66;89.85;98814.88;5095393;28;20028;-60
2023/03/27 00:29:38;;;;;;;19.50;3.42;;;;;;;2.43;92.04;98830.31;5104048;28;20027;-60
2023/03/27 00:32:04;;;;;;;14.27;2.60;;;;;;;2.31;89.25;98822.94;5104057;28;20031;-60
2023/03/27 00:34:30;;;;;;;16.13;3.28;;;;;;;2.35;88.81;98834.75;5103043;28;20027;-60
2023/03/27 00:36:55;;;;;;;18.98;3.03;;;;;;;2.21;88.04;98833.09;5103272;28;20462;-60
2023/03/27 00:39:21;;;;;;;14.88;2.45;;;;;;;2.18;90.35;98853.81;5096763;28;20062;-60
2023/03/27 00:41:47;;;;;;;9.27;2.40;;;;;;;2.04;90.37;98853.75;5100453;28;20028;-60
2023/03/27 00:44:27;;;;;;;19.83;3.10;;;;;;;1.99;92.54;98855.34;5097957;28;20057;-60
2023/03/27 00:46:53;;;;;;;7.03;2.00;;;;;;;1.87;90.36;98863.84;5100715;28;20034;-60
2023/03/27 00:49:18;;;;;;;19.27;2.67;;;;;;;1.85;88.76;98863.22;5089149;28;20046;-60
2023/03/27 00:51:45;;;;;;;13.75;2.67;;;;;;;1.85;85.59;98860.59;5081035;28;20020;-60
2023/03/27 00:54:12;;;;;;;13.73;1.73;;;;;;;1.75;86.06;98868.06;5097731;28;20046;-60
2023/03/27 00:56:37;;;;;;;7.72;2.00;;;;;;;1.64;86.16;98861.47;5098740;28;20118;-60
2023/03/27 00:59:06;;;;;;;10.70;1.75;;;;;;;1.59;87.57;98871.78;5097163;28;20423;-60
2023/03/27 01:01:32;;;;;;;6.60;1.95;;;;;;;1.54;87.49;98878.66;5102032;28;20062;-60
2023/03/27 01:03:59;;;;;;;5.82;2.45;;;;;;;1.48;87.20;98885.53;5103941;28;20035;-60
2023/03/27 01:06:24;;;;;;;9.30;2.40;;;;;;;1.47;87.18;98887.38;5098006;28;20099;-60
2023/03/27 01:08:50;;;;;;;11.82;2.60;;;;;;;1.43;87.36;98904.59;5092732;28;20036;-60
2023/03/27 01:11:50;;;;;;;13.18;2.38;;;;;;;1.35;89.32;98907.38;5094849;28;20036;-60
2023/03/27 01:15:00;;;;;;;16.63;2.85;;;;;;;1.23;89.60;98911.53;5099152;28;20108;-59
2023/03/27 01:18:02;;;;;;;8.73;2.75;;;;;;;1.28;88.90;98917.88;5057366;28;20123;-59
2023/03/27 01:20:50;;;;;;;11.07;2.28;;;;;;;1.21;90.06;98924.94;5119878;27;20031;-59
2023/03/27 01:23:38;;;;;;;15.57;2.65;;;;;;;1.22;93.41;98933.66;5097360;28;20438;-60
2023/03/27 01:26:38;;;;;;;12.57;2.35;;;;;;;1.17;91.67;98936.03;5099740;28;20031;-60
2023/03/27 01:29:18;;;;;;;4.10;1.90;;;;;;;1.18;92.31;98945.63;5089251;28;20035;-60
2023/03/27 01:31:46;;;;;;;14.57;2.78;;;;;;;1.03;94.12;98951.75;5076134;28;20492;-60
2023/03/27 01:34:33;;;;;;;12.88;2.72;;;;;;;1.00;93.25;98940.75;5099609;28;20067;-60
2023/03/27 01:37:20;;;;;;;15.48;2.15;;;;;;;0.98;93.72;98962.06;5099384;28;20032;-60
2023/03/27 01:39:49;;;;;;;13.07;2.22;;;;;;;0.93;93.07;98956.53;5099215;28;20032;-60
2023/03/27 01:42:19;;;;;;;17.70;2.63;;;;;;;0.92;93.45;98965.44;5103461;28;20031;-60
2023/03/27 01:44:50;;;;;;;10.77;2.20;;;;;;;0.91;93.39;98963.00;5098067;28;20110;-60
2023/03/27 01:47:42;;;;;;;16.45;3.47;;;;;;;1.02;93.61;98973.06;5103720;28;20028;-60
2023/03/27 01:50:43;;;;;;;10.85;2.22;;;;;;;0.91;93.81;98979.66;5097128;28;20051;-60
2023/03/27 01:53:39;;;;;;;13.80;2.70;;;;;;;0.85;94.31;98996.22;5092884;28;20136;-60
2023/03/27 01:56:06;;;;;;;12.63;2.70;;;;;;;0.86;96.23;98988.13;5083778;28;20451;-60
2023/03/27 01:58:36;;;;;;;8.45;2.08;;;;;;;0.81;95.66;98994.97;5102656;28;20024;-60
2023/03/27 02:01:01;;;;;;;12.57;2.20;;;;;;;0.75;96.30;98990.41;5098449;28;20036;-60
2023/03/27 02:03:41;;;;;;;14.27;2.40;;;;;;;0.77;95.47;98993.69;5090999;28;20043;-60
2023/03/27 02:06:12;;;;;;;21.98;3.33;;;;;;;0.80;96.61;99006.50;5085778;28;20036;-60
2023/03/27 02:08:54;;;;;;;14.80;2.47;;;;;;;0.90;96.33;98999.13;5097370;28;20405;-60
2023/03/27 02:11:21;;;;;;;14.10;3.05;;;;;;;0.80;95.79;99009.13;5090352;28;20106;-60
2023/03/27 02:13:52;;;;;;;8.00;2.03;;;;;;;0.80;97.66;99012.63;5101374;28;20192;-60
2023/03/27 02:16:20;;;;;;;19.90;2.70;;;;;;;0.67;96.69;99008.97;5086772;28;20751;-60
2023/03/27 02:18:55;;;;;;;11.65;2.63;;;;;;;0.67;97.25;99014.25;5084145;28;20097;-60
2023/03/27 02:21:22;;;;;;;21.88;3.05;;;;;;;0.64;98.42;99010.97;5094049;28;20064;-60
2023/03/27 02:23:48;;;;;;;15.23;3.30;;;;;;;0.58;98.18;99013.56;5091603;28;20036;-60
2023/03/27 02:26:13;;;;;;;20.67;3.70;;;;;;;0.56;98.48;99018.19;5103397;28;20110;-60
2023/03/27 02:28:45;;;;;;;19.88;2.67;;;;;;;0.63;97.90;99035.72;5097980;28;20257;-60
2023/03/27 02:31:27;;;;;;;20.52;2.92;;;;;;;0.56;99.89;99032.19;5093168;28;20035;-60
2023/03/27 02:34:13;;;;;;;12.00;3.40;;;;;;;0.53;99.31;99040.47;5100628;28;20027;-60
2023/03/27 02:36:44;;;;;;;17.98;2.53;;;;;;;0.45;99.49;99043.22;5096848;28;20089;-60
2023/03/27 02:39:19;;;;;;;17.92;2.88;;;;;;;0.51;100.00;99045.09;5096952;28;20039;-60
2023/03/27 02:41:50;;;;;;;9.93;2.92;;;;;;;0.39;100.00;99036.00;5093951;28;20032;-62
2023/03/27 02:44:50;;;;;;;14.27;3.17;;;;;;;0.46;100.00;99052.75;5096157;28;20027;-60
2023/03/27 02:47:23;;;;;;;22.97;3.47;;;;;;;0.38;100.00;99042.28;5092450;28;20518;-60
2023/03/27 02:49:55;;;;;;;19.42;3.55;;;;;;;0.33;100.00;99055.19;5091624;28;20100;-60
2023/03/27 02:52:35;;;;;;;15.40;2.75;;;;;;;0.38;100.00;99058.13;5077312;28;20038;-60
2023/03/27 02:55:05;;;;;;;24.27;3.00;;;;;;;0.35;100.00;99055.81;5084691;28;20051;-60
2023/03/27 02:57:31;;;;;;;16.25;3.30;;;;;;;0.37;100.00;99072.28;5090095;28;20043;-60
2023/03/27 02:59:56;;;;;;;15.55;3.05;;;;;;;0.39;100.00;99080.84;5097780;28;20485;-60
2023/03/27 03:02:25;;;;;;;6.15;2.80;;;;;;;0.41;100.00;99084.13;5090301;28;20020;-62
2023/03/27 03:05:19;;;;;;;13.75;3.40;;;;;;;0.53;99.73;99087.94;5099561;28;20031;-60
2023/03/27 03:07:45;;;;;;;17.85;3.40;;;;;;;0.57;100.00;99089.19;5092227;28;20521;-60
2023/03/27 03:10:10;;;;;;;16.38;3.20;;;;;;;0.56;100.00;99090.22;5094569;28;20031;-60
2023/03/27 03:12:36;;;;;;;19.00;4.25;;;;;;;0.56;100.00;99095.47;5091543;28;20039;-60
2023/03/27 03:15:01;;;;;;;24.30;3.70;;;;;;;0.59;100.00;99103.03;5099446;28;20031;-60
2023/03/27 03:17:26;;;;;;;14.68;3.30;;;;;;;0.60;100.00;99117.88;5096937;28;20427;-60
2023/03/27 03:19:52;;;;;;;17.65;3.83;;;;;;;0.58;100.00;99111.94;5090111;28;20098;-60
2023/03/27 03:22:18;;;;;;;13.68;2.92;;;;;;;0.51;100.00;99105.75;5094581;28;20688;-60
2023/03/27 03:24:43;;;;;;;12.02;3.15;;;;;;;0.55;100.00;99125.50;5096489;28;20030;-60
2023/03/27 03:27:08;;;;;;;10.35;2.97;;;;;;;0.57;100.00;99120.84;5095005;28;20390;-60
2023/03/27 03:29:35;;;;;;;14.68;3.50;;;;;;;0.58;100.00;99117.22;5093530;28;20413;-60
2023/03/27 03:32:07;;;;;;;21.02;4.55;;;;;;;0.68;100.00;99134.63;5091355;28;20034;-60
2023/03/27 03:34:32;;;;;;;17.63;4.28;;;;;;;0.55;100.00;99146.59;5094074;28;20019;-60
2023/03/27 03:36:58;;;;;;;13.52;3.40;;;;;;;0.53;100.00;99145.97;5093204;28;20044;-60
2023/03/27 03:39:24;;;;;;;25.27;4.82;;;;;;;0.53;100.00;99156.50;5089441;28;20023;-60
2023/03/27 03:41:49;;;;;;;18.33;3.88;;;;;;;0.57;100.00;99156.97;5097770;28;20024;-61
2023/03/27 03:44:15;;;;;;;18.60;4.15;;;;;;;0.50;100.00;99156.88;5094841;28;21371;-60
2023/03/27 03:46:40;;;;;;;15.98;3.58;;;;;;;0.51;100.00;99160.31;5104290;28;20097;-60
2023/03/27 03:49:06;;;;;;;13.48;3.70;;;;;;;0.43;100.00;99171.78;5099474;28;20228;-60
2023/03/27 03:51:32;;;;;;;9.27;3.17;;;;;;;0.47;100.00;99175.66;5096153;28;20479;-60
2023/03/27 03:53:57;;;;;;;11.40;3.20;;;;;;;0.41;100.00;99179.84;5097858;28;20088;-60
2023/03/27 03:56:23;;;;;;;16.77;4.50;;;;;;;0.41;100.00;99173.75;5092600;28;20019;-60
2023/03/27 03:58:49;;;;;;;17.08;2.90;;;;;;;0.41;100.00;99189.59;5092076;28;20024;-60
2023/03/27 04:01:14;;;;;;;15.88;3.50;;;;;;;0.41;100.00;99190.41;5095629;28;20027;-61
2023/03/27 04:03:40;;;;;;;13.18;3.42;;;;;;;0.37;100.00;99202.28;5091881;28;20024;-60
2023/03/27 04:06:06;;;;;;;13.05;3.00;;;;;;;0.32;100.00;99202.00;5101171;28;20044;-60
2023/03/27 04:08:32;;;;;;;14.75;3.30;;;;;;;0.39;100.00;99207.41;5094938;28;21014;-60
2023/03/27 04:10:58;;;;;;;12.82;3.40;;;;;;;0.34;100.00;99196.56;5093670;28;20062;-60
2023/03/27 04:13:23;;;;;;;17.95;3.50;;;;;;;0.40;100.00;99203.75;5095861;28;20100;-60
2023/03/27 04:15:50;;;;;;;12.52;3.45;;;;;;;0.35;100.00;99211.38;5093369;28;20039;-60
2023/03/27 04:18:18;;;;;;;20.17;3.45;;;;;;;0.28;100.00;99226.28;5092066;28;20711;-60
2023/03/27 04:20:48;;;;;;;14.88;3.90;;;;;;;0.24;100.00;99225.78;5098354;28;20035;-60
2023/03/27 04:23:17;;;;;;;28.17;3.83;;;;;;;0.21;100.00;99226.97;5094174;28;20063;-60
2023/03/27 04:25:45;;;;;;;11.02;3.92;;;;;;;0.14;100.00;99230.47;5094149;28;20039;-60
2023/03/27 04:28:15;;;;;;;12.77;3.17;;;;;;;0.17;100.00;99228.31;5094212;28;20019;-60
2023/03/27 04:30:42;;;;;;;13.52;3.10;;;;;;;0.14;100.00;99235.75;5092951;28;20375;-60
2023/03/27 04:33:08;;;;;;;14.63;4.15;;;;;;;0.19;100.00;99233.41;5099147;28;20040;-60
2023/03/27 04:35:34;;;;;;;11.70;3.53;;;;;;;0.20;100.00;99245.59;5098154;28;20036;-60
2023/03/27 04:38:01;;;;;;;18.25;3.55;;;;;;;0.07;100.00;99246.16;5092331;28;20077;-60
2023/03/27 04:40:29;;;;;;;12.77;3.55;;;;;;;0.12;100.00;99258.81;5094179;28;20027;-60
2023/03/27 04:42:55;;;;;;;15.60;3.33;;;;;;;0.05;100.00;99264.00;5098035;28;20024;-60
2023/03/27 04:45:21;;;;;;;18.40;3.38;;;;;;;-0.03;100.00;99262.19;5101435;28;20485;-60
2023/03/27 04:47:47;;;;;;;14.65;3.30;;;;;;;0.15;100.00;99274.28;5096358;28;20515;-62
2023/03/27 04:50:14;;;;;;;18.70;4.80;;;;;;;0.12;100.00;99270.19;5096359;28;20076;-60
2023/03/27 04:52:40;;;;;;;16.05;3.75;;;;;;;0.01;100.00;99269.78;5096326;28;20020;-60
2023/03/27 04:55:06;;;;;;;11.10;3.75;;;;;;;0.05;100.00;99279.81;5100860;28;20031;-61
2023/03/27 04:57:32;;;;;;;11.65;3.40;;;;;;;-0.10;100.00;99276.22;5095776;28;20024;-60
2023/03/27 04:59:58;;;;;;;9.65;3.63;;;;;;;0.02;100.00;99280.13;5096676;28;20031;-60
2023/03/27 05:02:25;;;;;;;17.63;3.65;;;;;;;0.02;100.00;99288.03;5101705;28;20026;-60
2023/03/27 05:05:00;;;;;;;12.93;2.90;;;;;;;-0.02;100.00;99292.03;5100198;28;20027;-60
2023/03/27 05:07:27;;;;;;;18.58;3.30;;;;;;;0.04;100.00;99288.69;5095916;28;20046;-60
2023/03/27 05:09:52;;;;;;;9.82;3.55;;;;;;;-0.02;100.00;99289.38;5101917;28;20027;-60
2023/03/27 05:12:19;;;;;;;27.17;4.45;;;;;;;-0.02;100.00;99300.75;5094535;28;20635;-60
2023/03/27 05:14:47;;;;;;;12.48;3.50;;;;;;;-0.02;100.00;99295.47;5099204;28;20101;-60
2023/03/27 05:17:14;;;;;;;14.52;4.18;;;;;;;0.02;100.00;99308.28;5097655;28;20175;-60
2023/03/27 05:19:39;;;;;;;10.20;3.47;;;;;;;-0.10;100.00;99315.75;5098685;28;20024;-61
2023/03/27 05:22:05;;;;;;;16.15;4.03;;;;;;;-0.02;100.00;99319.19;5097316;28;20035;-60
2023/03/27 05:24:31;;;;;;;14.73;3.83;;;;;;;0.08;100.00;99323.44;5098976;28;20031;-61
2023/03/27 05:26:57;;;;;;;22.60;5.28;;;;;;;-0.05;100.00;99326.59;5092845;28;20027;-60
2023/03/27 05:29:22;;;;;;;8.73;4.05;;;;;;;-0.07;100.00;99328.59;5096480;28;20168;-59
2023/03/27 05:31:48;;;;;;;14.20;3.40;;;;;;;0.14;100.00;99333.28;5100002;28;20408;-59
2023/03/27 05:34:13;;;;;;;17.90;3.45;;;;;;;0.23;100.00;99339.34;5094740;28;21552;-60
2023/03/27 05:36:39;;;;;;;16.40;4.22;;;;;;;0.20;100.00;99345.75;5102197;28;20100;-59
2023/03/27 05:39:04;;;;;;;14.60;3.72;;;;;;;0.13;100.00;99353.53;5091342;28;20035;-60
2023/03/27 05:41:30;;;;;;;11.88;3.80;;;;;;;0.32;100.00;99359.38;5095160;28;20461;-60
2023/03/27 05:43:55;;;;;;;19.55;3.70;;;;;;;0.28;100.00;99355.47;5101019;28;20027;-60
2023/03/27 05:46:21;;;;;;;19.23;4.03;;;;;;;0.43;100.00;99364.28;5097180;28;20101;-60
2023/03/27 05:48:47;;;;;;;15.95;3.60;;;;;;;0.43;100.00;99366.91;5084595;28;20028;-60
2023/03/27 05:51:12;;;;;;;14.73;3.25;;;;;;;0.57;100.00;99368.78;5096123;28;20038;-60
2023/03/27 05:53:41;;;;;;;12.75;3.70;;;;;;;0.58;100.00;99370.44;5094072;28;20052;-60
2023/03/27 05:56:07;;;;;;;13.27;3.15;;;;;;;1.40;97.07;99383.00;5101101;28;20023;-60
2023/03/27 05:58:32;;;;;;;10.82;2.95;;;;;;;1.94;92.14;99384.59;5099106;28;20026;-60
2023/03/27 06:00:59;;;;;;;14.68;3.35;;;;;;;2.89;86.42;99386.31;5093701;28;20032;-59
2023/03/27 06:03:24;;;;;;;12.25;3.78;;;;;;;3.98;82.28;99390.44;5093364;28;20055;-60
2023/03/27 06:05:51;;;;;;;12.48;2.65;;;;;;;3.91;80.61;99394.88;5093989;28;20486;-60
2023/03/27 06:08:16;;;;;;;7.57;2.83;;;;;;;3.74;79.08;99400.47;5093497;28;20023;-59
2023/03/27 06:10:42;;;;;;;8.43;2.60;;;;;;;4.57;76.94;99400.50;5093791;28;20047;-59
2023/03/27 06:13:12;;;;;;;14.15;2.85;;;;;;;5.13;73.08;99410.00;5095531;28;20114;-60
2023/03/27 06:15:39;;;;;;;8.32;2.45;;;;;;;4.89;73.10;99420.19;5094414;28;20024;-60
2023/03/27 06:18:05;;;;;;;15.00;3.20;;;;;;;5.09;76.61;99420.25;5093582;28;20028;-59
2023/03/27 06:20:31;;;;;;;9.70;2.97;;;;;;;5.33;73.80;99426.78;5093741;28;20016;-60
2023/03/27 06:23:00;;;;;;;20.15;3.15;;;;;;;6.17;70.25;99433.31;5096289;28;20035;-60
2023/03/27 06:25:26;;;;;;;9.43;2.63;;;;;;;6.81;67.28;99447.59;5095323;28;20420;-60
2023/03/27 06:27:52;;;;;;;16.10;3.03;;;;;;;6.57;66.66;99446.50;5096648;28;20066;-60
2023/03/27 06:30:19;;;;;;;16.70;2.85;;;;;;;6.36;66.24;99446.75;5102914;28;20027;-60
2023/03/27 06:32:58;;;;;;;13.13;2.95;;;;;;;8.21;63.50;99459.88;5088249;28;20028;-60
2023/03/27 06:35:24;;;;;;;8.30;2.60;;;;;;;6.86;65.68;99462.97;5094538;28;20102;-60
2023/03/27 06:37:50;;;;;;;13.75;3.15;;;;;;;5.79;69.45;99471.19;5102886;28;20027;-60
2023/03/27 06:40:21;;;;;;;13.05;2.83;;;;;;;4.48;78.32;99476.00;5090336;28;20047;-60
2023/03/27 06:42:49;;;;;;;11.95;2.78;;;;;;;4.46;76.50;99476.19;5092754;28;20119;-60
2023/03/27 06:45:15;;;;;;;12.18;3.30;;;;;;;3.84;79.74;99484.97;5099364;28;20269;-60
2023/03/27 06:47:46;;;;;;;18.45;3.53;;;;;;;3.18;81.52;99493.97;5100071;28;20474;-60
2023/03/27 06:50:12;;;;;;;14.63;4.25;;;;;;;3.46;82.01;99488.75;5090456;28;20110;-60
2023/03/27 06:52:37;;;;;;;14.75;4.57;;;;;;;3.11;84.19;99493.06;5097576;28;20073;-60
2023/03/27 06:55:03;;;;;;;10.75;4.10;;;;;;;3.37;86.84;99494.34;5099105;28;20028;-60
2023/03/27 06:57:28;;;;;;;13.43;4.35;;;;;;;6.18;77.00;99493.50;5098185;28;20315;-61
2023/03/27 06:59:54;;;;;;;15.43;4.28;;;;;;;7.71;65.90;99486.63;5096824;28;20035;-61
2023/03/27 07:02:19;;;;;;;11.50;3.47;;;;;;;7.90;61.71;99493.66;5104512;28;20232;-61
2023/03/27 07:04:45;;;;;;;7.60;3.17;;;;;;;8.38;66.83;99495.66;5097156;28;20023;-61
2023/03/27 07:07:11;;;;;;;13.63;2.95;;;;;;;6.86;67.51;99505.59;5098082;28;20035;-60
2023/03/27 07:09:37;;;;;;;13.02;3.28;;;;;;;8.00;67.23;99501.19;5102349;28;20031;-59
2023/03/27 07:12:03;;;;;;;15.63;3.40;;;;;;;8.14;62.19;99507.22;5093671;28;20055;-59
2023/03/27 07:14:28;;;;;;;13.20;3.20;;;;;;;7.63;64.88;99506.38;5090509;28;20154;-59
2023/03/27 07:16:53;;;;;;;10.27;3.20;;;;;;;9.15;60.66;99513.91;5099247;28;20023;-59
2023/03/27 07:19:19;;;;;;;9.02;2.95;;;;;;;8.30;63.35;99519.19;5094156;28;20024;-59
2023/03/27 07:21:44;;;;;;;10.48;3.15;;;;;;;8.89;62.10;99522.28;5092944;28;20101;-58
2023/03/27 07:24:10;;;;;;;12.10;3.47;;;;;;;8.19;63.74;99526.06;5086699;28;20027;-59
2023/03/27 07:26:36;;;;;;;12.30;3.78;;;;;;;8.02;63.78;99535.66;5095313;28;20035;-61
2023/03/27 07:29:02;;;;;;;11.35;3.25;;;;;;;6.78;67.98;99532.47;5096246;28;20089;-58
2023/03/27 07:31:28;;;;;;;12.90;3.13;;;;;;;6.45;70.68;99533.38;5093418;28;20076;-59
2023/03/27 07:33:53;;;;;;;11.07;3.70;;;;;;;7.38;67.72;99534.88;5089601;28;20028;-60
2023/03/27 07:36:19;;;;;;;13.07;3.92;;;;;;;7.10;69.09;99536.84;5100641;28;20024;-60
2023/03/27 07:38:46;;;;;;;13.05;3.97;;;;;;;6.64;68.72;99543.19;5090775;28;20024;-60
2023/03/27 07:41:12;;;;;;;12.82;4.00;;;;;;;6.58;69.59;99546.66;5093786;28;20388;-59
2023/03/27 07:43:37;;;;;;;12.38;4.18;;;;;;;6.54;73.77;99545.47;5096646;28;20145;-60
2023/03/27 07:46:05;;;;;;;8.38;3.70;;;;;;;7.62;67.60;99551.97;5093583;28;20024;-60
2023/03/27 07:48:31;;;;;;;14.30;4.40;;;;;;;9.01;63.50;99549.88;5095976;28;20050;-60
2023/03/27 07:50:59;;;;;;;8.20;3.75;;;;;;;7.16;69.68;99553.03;5089912;28;20028;-60
2023/03/27 07:53:24;;;;;;;11.02;3.67;;;;;;;7.17;69.34;99555.50;5099914;28;20106;-60
2023/03/27 07:55:51;;;;;;;11.48;3.92;;;;;;;6.26;73.75;99559.84;5095201;28;20030;-60
2023/03/27 07:58:20;;;;;;;13.25;4.60;;;;;;;5.62;74.59;99563.03;5091296;28;20035;-60
2023/03/27 08:00:50;;;;;;;9.88;4.40;;;;;;;6.93;73.19;99567.66;5087485;28;20051;-60
2023/03/27 08:03:16;;;;;;;13.50;3.80;;;;;;;7.05;72.21;99563.31;5093442;28;20103;-60
2023/03/27 08:05:41;;;;;;;12.38;4.15;;;;;;;6.37;75.58;99570.88;5093372;28;20074;-60
2023/03/27 08:08:08;;;;;;;12.25;4.65;;;;;;;4.92;80.29;99581.00;5095296;28;20028;-60
2023/03/27 08:10:34;;;;;;;7.97;4.35;;;;;;;3.66;90.03;99608.19;5095198;28;20027;-60
2023/03/27 08:12:59;;;;;;;8.52;5.72;;;;;;;2.58;95.69;99600.97;5090356;28;20044;-60
2023/03/27 08:15:25;;;;;;;10.98;6.95;;;;;;;2.21;100.00;99607.91;5091375;28;20027;-60
2023/03/27 08:17:53;;;;;;;11.75;6.63;;;;;;;2.44;100.00;99607.06;5094840;28;20032;-60
2023/03/27 08:20:19;;;;;;;9.80;4.85;;;;;;;3.12;100.00;99618.38;5101768;28;20036;-60
2023/03/27 08:22:44;;;;;;;8.35;6.00;;;;;;;3.30;98.11;99621.47;5102824;27;20024;-60
2023/03/27 08:25:10;;;;;;;10.48;4.88;;;;;;;4.17;93.80;99622.34;5096490;28;20040;-60
2023/03/27 08:27:35;;;;;;;12.05;5.07;;;;;;;3.95;94.67;99619.72;5094566;28;20362;-60
2023/03/27 08:30:01;;;;;;;10.57;6.47;;;;;;;3.90;92.98;99616.81;5092446;28;20040;-60
2023/03/27 08:32:26;;;;;;;13.23;7.57;;;;;;;3.84;95.42;99630.81;5099500;28;20028;-62
2023/03/27 08:34:52;;;;;;;11.40;6.95;;;;;;;4.32;90.73;99623.91;5102083;28;20061;-61
2023/03/27 08:37:18;;;;;;;15.20;6.75;;;;;;;4.91;91.51;99622.66;5099148;28;20124;-61
2023/03/27 08:39:45;;;;;;;13.43;6.35;;;;;;;5.25;88.28;99631.63;5099846;28;20032;-61
2023/03/27 08:42:16;;;;;;;13.70;6.43;;;;;;;6.51;82.27;99631.06;5100044;28;20024;-60
2023/03/27 08:44:41;;;;;;;;;;;;;;;5.33;86.52;99631.44;5098103;28;20032;-58
2023/03/27 08:47:19;;;;;;;12.13;5.13;;;;;;;5.64;82.21;99635.44;5095000;28;19916;-60
2023/03/27 08:49:51;;;;;;;9.05;5.43;;;;;;;6.08;83.03;99642.13;5094052;28;20293;-60
2023/03/27 08:52:20;;;;;;;14.18;4.78;;;;;;;7.05;77.79;99642.47;5096325;28;20053;-60
2023/03/27 08:54:48;;;;;;;13.57;4.70;;;;;;;7.93;75.44;99641.88;5085020;28;20035;-60
2023/03/27 08:57:18;;;;;;;15.05;6.65;;;;;;;6.61;78.14;99647.44;5100018;27;20062;-60
2023/03/27 08:59:44;;;;;;;7.10;4.82;;;;;;;5.36;83.65;99648.84;5095746;28;20049;-60
2023/03/27 09:02:33;;;;;;;11.15;6.43;;;;;;;5.91;81.94;99654.13;5099942;28;20602;-60
2023/03/27 09:05:14;;;;;;;9.68;4.43;;;;;;;5.27;80.95;99658.03;5085520;28;20032;-61
2023/03/27 09:07:42;;;;;;;14.00;6.45;;;;;;;4.88;87.88;99660.25;5101578;28;20026;-61
2023/03/27 09:10:16;;;;;;;13.55;5.75;;;;;;;7.49;79.67;99668.38;5092565;28;20240;-60
2023/03/27 09:12:42;;;;;;;9.50;5.32;;;;;;;6.83;74.32;99660.53;5091084;28;20047;-59
2023/03/27 09:15:24;;;;;;;10.35;4.40;;;;;;;6.79;74.17;99656.66;5093291;28;20036;-59
2023/03/27 09:18:29;;;;;;;8.70;3.42;;;;;;;8.14;68.74;99656.75;5079222;28;20481;-60
2023/03/27 09:20:57;;;;;;;12.73;4.00;;;;;;;9.10;68.17;99660.84;5096403;28;20421;-59
2023/03/27 09:23:22;;;;;;;6.78;2.90;;;;;;;8.77;66.95;99662.00;5074783;28;20853;-58
2023/03/27 09:25:56;;;;;;;12.93;3.50;;;;;;;8.20;65.07;99658.53;5095197;28;20115;-61
2023/03/27 09:28:29;;;;;;;7.28;3.00;;;;;;;8.54;68.37;99661.81;5088959;28;20073;-59
2023/03/27 09:30:56;;;;;;;10.23;3.75;;;;;;;7.62;68.00;99659.50;5092321;28;20021;-59
2023/03/27 09:33:23;;;;;;;7.35;3.50;;;;;;;7.50;66.97;99662.00;5092577;28;20057;-59
2023/03/27 09:35:48;;;;;;;13.40;4.90;;;;;;;6.99;71.75;99665.44;5099333;28;20023;-59
2023/03/27 09:38:28;;;;;;;7.82;4.07;;;;;;;6.39;75.35;99664.66;5091365;28;20451;-59
2023/03/27 09:41:00;;;;;;;8.50;3.83;;;;;;;6.09;74.28;99672.22;5095910;28;20042;-61
2023/03/27 09:44:04;;;;;;;9.45;3.63;;;;;;;5.46;75.85;99669.75;5079593;28;20038;-60
2023/03/27 09:46:30;;;;;;;9.02;5.20;;;;;;;5.27;75.96;99669.47;5099889;28;20054;-59
2023/03/27 09:49:00;;;;;;;11.02;3.42;;;;;;;4.97;78.42;99667.06;5088625;28;20027;-59
2023/03/27 09:51:51;;;;;;;8.45;2.90;;;;;;;5.98;74.11;99668.31;5102752;28;20054;-59
2023/03/27 09:54:19;;;;;;;6.82;2.95;;;;;;;5.71;71.37;99673.50;5099049;28;20070;-59
2023/03/27 09:56:58;;;;;;;10.25;4.03;;;;;;;6.26;74.30;99676.13;5098664;28;20092;-59
2023/03/27 09:59:34;;;;;;;11.00;4.20;;;;;;;7.73;68.92;99672.16;5096801;28;20031;-59
2023/03/27 10:02:08;;;;;;;36.45;22.77;;;;;;;8.60;63.01;99672.41;5091129;28;20519;-59
2023/03/27 10:04:34;;;;;;;8.18;3.78;;;;;;;9.02;65.22;99674.53;5096262;28;20035;-59
2023/03/27 10:07:07;;;;;;;20.88;11.82;;;;;;;9.35;62.21;99678.69;5089589;28;20390;-60
2023/03/27 10:09:34;;;;;;;4.70;1.75;;;;;;;8.49;57.35;99675.00;5098409;28;20034;-60
2023/03/27 10:12:06;;;;;;;8.18;3.00;;;;;;;9.35;58.84;99682.19;5094357;28;20074;-60
2023/03/27 10:14:46;;;;;;;6.25;2.08;;;;;;;8.52;60.06;99672.72;5093875;28;20044;-59
2023/03/27 10:17:38;;;;;;;7.80;2.17;;;;;;;8.04;61.77;99675.06;5077240;28;20132;-59
2023/03/27 10:20:12;;;;;;;6.03;2.15;;;;;;;7.21;63.97;99673.16;5091512;28;20032;-59
2023/03/27 10:22:41;;;;;;;2.38;1.60;;;;;;;8.35;60.52;99675.06;5097283;28;20024;-59
2023/03/27 10:25:38;;;;;;;4.28;1.67;;;;;;;8.70;54.19;99679.94;5095426;28;20462;-59
2023/03/27 10:28:21;;;;;;;6.93;1.70;;;;;;;8.42;53.62;99694.56;5087091;28;20429;-59
2023/03/27 10:30:56;;;;;;;8.38;2.00;;;;;;;8.37;56.02;99688.22;5099290;28;20048;-60
2023/03/27 10:33:38;;;;;;;11.32;1.98;;;;;;;8.45;57.41;99700.50;5094297;28;20028;-60
2023/03/27 10:36:05;;;;;;;5.57;1.60;;;;;;;7.13;58.46;99698.22;5093821;28;20046;-60
2023/03/27 10:38:31;;;;;;;4.82;1.90;;;;;;;6.89;60.95;99705.03;5095587;28;20031;-60
2023/03/27 10:40:57;;;;;;;2.65;1.48;;;;;;;5.77;68.07;99731.25;5096318;28;20393;-60
2023/03/27 10:43:44;;;;;;;6.15;1.90;;;;;;;4.93;78.04;99734.84;5094322;28;20366;-61
2023/03/27 10:46:12;;;;;;;6.72;2.20;;;;;;;4.59;85.11;99740.09;5095758;28;20119;-60
2023/03/27 10:48:43;;;;;;;9.77;2.33;;;;;;;3.72;89.44;99756.94;5094071;28;20032;-60
2023/03/27 10:51:56;;;;;;;6.65;2.10;;;;;;;3.05;97.05;99745.44;5094371;28;20420;-60
2023/03/27 10:54:46;;;;;;;7.93;1.90;;;;;;;2.23;96.81;99759.34;5090354;28;20180;-60
2023/03/27 10:57:18;;;;;;;6.50;2.03;;;;;;;2.04;100.00;99751.84;5078563;28;20157;-60
2023/03/27 10:59:53;;;;;;;6.00;2.00;;;;;;;2.53;98.95;99746.22;5094786;28;20031;-60
2023/03/27 11:02:30;;;;;;;3.83;1.85;;;;;;;2.47;99.41;99738.97;5094709;28;20015;-60
2023/03/27 11:05:04;;;;;;;6.78;2.20;;;;;;;2.81;99.88;99736.69;5079753;28;20036;-60
2023/03/27 11:07:36;;;;;;;7.60;2.13;;;;;;;3.24;98.38;99733.47;5075473;28;20031;-60
2023/03/27 11:10:25;;;;;;;6.65;2.22;;;;;;;4.04;95.72;99739.75;5093861;28;20530;-60
2023/03/27 11:12:58;;;;;;;7.63;2.00;;;;;;;5.80;88.70;99725.53;5090360;28;20040;-60
2023/03/27 11:15:29;;;;;;;6.43;2.17;;;;;;;5.91;83.06;99732.09;5084754;28;20032;-60
2023/03/27 11:18:01;;;;;;;5.03;1.88;;;;;;;6.31;79.93;99731.41;5092509;28;20109;-60
2023/03/27 11:20:34;;;;;;;3.78;1.85;;;;;;;6.48;82.88;99717.50;5090094;28;20044;-60
2023/03/27 11:23:14;;;;;;;6.63;1.77;;;;;;;5.75;77.56;99722.66;5091812;28;20035;-60
2023/03/27 11:25:48;;;;;;;5.35;2.05;;;;;;;6.29;75.19;99720.16;5097958;28;20102;-61
2023/03/27 11:28:30;;;;;;;8.43;2.47;;;;;;;6.70;73.97;99731.47;5095347;28;20035;-60
2023/03/27 11:31:12;;;;;;;6.47;1.70;;;;;;;7.04;67.29;99732.28;5094377;28;20039;-61
2023/03/27 11:33:48;;;;;;;4.97;2.00;;;;;;;7.48;63.02;99728.06;5092216;28;20118;-61
2023/03/27 11:36:28;;;;;;;7.07;2.28;;;;;;;7.85;67.05;99728.34;5080157;28;20595;-61
2023/03/27 11:39:24;;;;;;;7.07;1.90;;;;;;;7.56;62.86;99729.69;5096009;28;20136;-61
2023/03/27 11:41:52;;;;;;;7.93;2.13;;;;;;;8.01;59.74;99732.34;5091108;28;20028;-60
2023/03/27 11:44:18;;;;;;;8.40;2.08;;;;;;;7.87;59.55;99741.50;5095686;28;20035;-60
2023/03/27 11:46:58;;;;;;;4.30;1.80;;;;;;;7.66;58.34;99739.91;5101766;28;20058;-60
2023/03/27 11:49:46;;;;;;;7.95;2.22;;;;;;;7.67;56.57;99746.91;5094727;28;20028;-60